createdAt,value
2022-12-10T00:02:09.194Z,37.05
2022-12-10T00:04:51.177Z,40.00
2022-12-10T00:07:39.181Z,39.60
2022-12-10T00:10:45.663Z,39.05
2022-12-10T00:13:30.840Z,40.25
2022-12-10T00:16:00.933Z,43.10
2022-12-10T00:18:53.413Z,43.15
2022-12-10T00:21:58.161Z,35.00
2022-12-10T00:24:42.748Z,39.95
2022-12-10T00:27:15.367Z,44.67
2022-12-10T00:32:12.050Z,37.97
2022-12-10T00:34:43.810Z,43.00
2022-12-10T00:37:31.130Z,45.00
2022-12-10T00:40:14.484Z,41.17
2022-12-10T00:42:42.337Z,44.70
2022-12-10T00:45:14.762Z,38.60
2022-12-10T00:47:42.000Z,44.67
2022-12-10T00:50:29.057Z,38.88
2022-12-10T00:53:09.580Z,43.28
2022-12-10T00:55:36.464Z,48.92
2022-12-10T00:58:03.437Z,41.30
2022-12-10T01:00:30.711Z,42.25
2022-12-10T01:02:57.830Z,44.30
2022-12-10T01:05:25.790Z,41.63
2022-12-10T01:08:13.071Z,36.42
2022-12-10T01:10:54.479Z,39.30
2022-12-10T01:13:23.656Z,37.80
2022-12-10T01:15:51.118Z,44.90
2022-12-10T01:18:38.151Z,40.78
2022-12-10T01:21:34.275Z,41.97
2022-12-10T01:24:15.815Z,43.88
2022-12-10T01:26:44.855Z,41.85
2022-12-10T01:29:12.537Z,39.63
2022-12-10T01:31:41.520Z,36.13
2022-12-10T01:34:12.674Z,38.72
2022-12-10T01:36:42.894Z,41.83
2022-12-10T01:39:14.837Z,38.15
2022-12-10T01:42:09.123Z,45.65
2022-12-10T01:44:49.657Z,37.47
2022-12-10T01:47:16.691Z,40.45
2022-12-10T01:49:43.711Z,41.63
2022-12-10T01:52:14.518Z,44.15
2022-12-10T01:55:02.078Z,36.22
2022-12-10T01:57:42.749Z,37.75
2022-12-10T02:00:11.550Z,37.38
2022-12-10T02:02:46.681Z,38.05
2022-12-10T02:05:20.146Z,38.65
2022-12-10T02:08:39.059Z,41.22
2022-12-10T02:11:58.109Z,39.92
2022-12-10T02:15:01.973Z,46.67
2022-12-10T02:18:00.329Z,44.80
2022-12-10T02:20:54.424Z,46.03
2022-12-10T02:23:34.463Z,44.15
2022-12-10T02:26:29.790Z,45.15
2022-12-10T02:29:29.242Z,47.03
2022-12-10T02:32:39.154Z,41.85
2022-12-10T02:35:32.664Z,40.88
2022-12-10T02:38:11.460Z,37.33
2022-12-10T02:40:42.773Z,55.35
2022-12-10T02:43:13.507Z,38.88
2022-12-10T02:45:42.595Z,41.83
2022-12-10T02:48:12.438Z,45.42
2022-12-10T02:50:43.145Z,56.78
2022-12-10T02:53:10.577Z,47.13
2022-12-10T02:56:05.131Z,41.10
2022-12-10T02:59:03.978Z,41.30
2022-12-10T03:01:57.146Z,37.97
2022-12-10T03:04:58.588Z,41.90
2022-12-10T03:07:55.194Z,41.95
2022-12-10T03:10:52.223Z,46.70
2022-12-10T03:13:22.973Z,48.70
2022-12-10T03:15:52.889Z,48.70
2022-12-10T03:18:43.146Z,47.10
2022-12-10T03:21:35.876Z,52.75
2022-12-10T03:24:11.336Z,45.35
2022-12-10T03:26:42.324Z,44.72
2022-12-10T03:29:16.481Z,46.47
2022-12-10T03:31:45.075Z,49.20
2022-12-10T03:34:32.264Z,44.13
2022-12-10T03:37:36.208Z,49.28
2022-12-10T03:40:41.226Z,47.50
2022-12-10T03:45:50.342Z,43.65
2022-12-10T03:48:17.946Z,47.58
2022-12-10T03:50:45.312Z,50.10
2022-12-10T03:53:21.838Z,47.38
2022-12-10T03:55:49.404Z,56.10
2022-12-10T03:58:20.315Z,53.85
2022-12-10T04:01:08.188Z,48.05
2022-12-10T04:03:49.555Z,57.67
2022-12-10T04:06:38.141Z,57.25
2022-12-10T04:09:20.378Z,48.88
2022-12-10T04:11:47.977Z,48.83
2022-12-10T04:14:33.395Z,62.05
2022-12-10T04:17:20.117Z,52.50
2022-12-10T04:20:00.755Z,51.70
2022-12-10T04:22:46.353Z,53.55
2022-12-10T04:25:32.349Z,53.22
2022-12-10T04:27:59.350Z,50.53
2022-12-10T04:30:26.384Z,57.40
2022-12-10T04:32:53.252Z,56.22
2022-12-10T04:35:20.112Z,57.80
2022-12-10T04:37:47.140Z,61.15
2022-12-10T04:40:14.165Z,60.28
2022-12-10T04:42:41.058Z,58.72
2022-12-10T04:45:08.865Z,54.22
2022-12-10T04:47:56.150Z,62.42
2022-12-10T04:50:57.268Z,57.67
2022-12-10T04:53:37.730Z,56.92
2022-12-10T04:56:06.202Z,54.13
2022-12-10T04:58:33.872Z,63.95
2022-12-10T05:01:05.749Z,56.45
2022-12-10T05:03:33.152Z,56.30
2022-12-10T05:06:11.150Z,62.05
2022-12-10T05:08:58.278Z,57.38
2022-12-10T05:11:52.138Z,60.27
2022-12-10T05:14:32.828Z,64.80
2022-12-10T05:17:20.355Z,59.20
2022-12-10T05:20:00.931Z,57.78
2022-12-10T05:22:46.784Z,55.95
2022-12-10T05:25:14.267Z,59.67
2022-12-10T05:27:41.201Z,66.10
2022-12-10T05:30:09.489Z,57.88
2022-12-10T05:32:56.227Z,63.33
2022-12-10T05:35:36.895Z,61.88
2022-12-10T05:38:04.566Z,66.10
2022-12-10T05:40:31.651Z,55.95
2022-12-10T05:42:59.146Z,62.10
2022-12-10T05:45:26.328Z,66.40
2022-12-10T05:47:53.588Z,57.05
2022-12-10T05:50:21.047Z,62.13
2022-12-10T05:52:48.256Z,60.42
2022-12-10T05:55:15.325Z,59.10
2022-12-10T05:57:42.238Z,61.00
2022-12-10T06:00:10.268Z,62.67
2022-12-10T06:03:07.212Z,65.97
2022-12-10T06:06:08.205Z,58.55
2022-12-10T06:09:10.304Z,57.15
2022-12-10T06:11:51.408Z,69.13
2022-12-10T06:14:18.324Z,63.90
2022-12-10T06:17:05.278Z,63.75
2022-12-10T06:20:06.512Z,66.60
2022-12-10T06:23:07.196Z,68.53
2022-12-10T06:25:39.939Z,64.88
2022-12-10T06:28:08.301Z,57.10
2022-12-10T06:30:35.748Z,70.10
2022-12-10T06:33:03.529Z,65.50
2022-12-10T06:35:30.828Z,62.58
2022-12-10T06:37:58.655Z,63.17
2022-12-10T06:40:26.018Z,61.20
2022-12-10T06:42:53.610Z,66.70
2022-12-10T06:45:20.902Z,65.80
2022-12-10T06:47:48.097Z,62.78
2022-12-10T06:50:15.297Z,63.70
2022-12-10T06:53:04.379Z,72.45
2022-12-10T06:56:05.290Z,61.88
2022-12-10T06:58:47.044Z,64.22
2022-12-10T07:01:28.604Z,65.05
2022-12-10T07:03:57.783Z,59.97
2022-12-10T07:06:46.425Z,62.58
2022-12-10T07:09:48.396Z,71.78
2022-12-10T07:12:36.055Z,68.18
2022-12-10T07:15:03.935Z,67.57
2022-12-10T07:17:52.249Z,71.22
2022-12-10T07:20:53.288Z,59.65
2022-12-10T07:23:33.979Z,63.22
2022-12-10T07:26:00.948Z,71.82
2022-12-10T07:28:32.449Z,66.50
2022-12-10T07:31:06.360Z,62.67
2022-12-10T07:33:34.289Z,62.80
2022-12-10T07:36:08.354Z,65.35
2022-12-10T07:38:35.728Z,61.05
2022-12-10T07:41:07.006Z,67.03
2022-12-10T07:43:39.135Z,65.43
2022-12-10T07:46:08.326Z,64.00
2022-12-10T07:48:36.961Z,66.63
2022-12-10T07:51:04.652Z,60.67
2022-12-10T07:53:32.309Z,65.10
2022-12-10T07:56:20.332Z,62.45
2022-12-10T07:59:01.187Z,65.72
2022-12-10T08:01:29.515Z,63.88
2022-12-10T08:04:16.522Z,64.55
2022-12-10T08:07:18.097Z,69.18
2022-12-10T08:10:19.293Z,70.35
2022-12-10T08:13:21.293Z,73.15
2022-12-10T08:16:26.375Z,61.42
2022-12-10T08:19:30.012Z,59.17
2022-12-10T08:21:59.094Z,59.10
2022-12-10T08:24:26.361Z,62.88
2022-12-10T08:26:53.585Z,65.82
2022-12-10T08:29:21.948Z,66.57
2022-12-10T08:31:49.065Z,56.10
2022-12-10T08:34:18.121Z,62.17
2022-12-10T08:36:46.193Z,66.63
2022-12-10T08:39:17.691Z,61.65
2022-12-10T08:41:46.106Z,59.65
2022-12-10T08:44:33.436Z,57.50
2022-12-10T08:47:13.878Z,57.70
2022-12-10T08:49:40.956Z,53.00
2022-12-10T08:52:28.253Z,56.85
2022-12-10T08:55:29.301Z,52.97
2022-12-10T08:58:30.308Z,53.35
2022-12-10T09:01:15.161Z,59.45
2022-12-10T09:04:04.283Z,67.25
2022-12-10T09:07:08.326Z,56.45
2022-12-10T09:10:11.614Z,64.30
2022-12-10T09:12:51.799Z,58.42
2022-12-10T09:15:39.308Z,64.40
2022-12-10T09:18:40.296Z,53.60
2022-12-10T09:21:31.537Z,56.20
2022-12-10T09:23:58.960Z,60.45
2022-12-10T09:26:26.384Z,58.30
2022-12-10T09:28:53.596Z,67.55
2022-12-10T09:31:21.270Z,62.38
2022-12-10T09:33:50.150Z,62.42
2022-12-10T09:36:17.318Z,59.92
2022-12-10T09:38:58.634Z,60.72
2022-12-10T09:42:03.881Z,62.65
2022-12-10T09:47:08.731Z,59.08
2022-12-10T09:50:00.680Z,62.58
2022-12-10T09:52:34.011Z,59.55
2022-12-10T09:55:13.104Z,67.97
2022-12-10T09:58:04.331Z,64.32
2022-12-10T10:01:08.119Z,66.13
2022-12-10T10:03:41.360Z,73.20
2022-12-10T10:06:29.322Z,67.17
2022-12-10T10:09:21.008Z,66.00
2022-12-10T10:11:48.540Z,70.60
2022-12-10T10:14:28.161Z,72.13
2022-12-10T10:17:33.313Z,60.80
2022-12-10T10:20:27.476Z,71.75
2022-12-10T10:23:10.177Z,71.30
2022-12-10T10:25:37.283Z,77.68
2022-12-10T10:28:04.439Z,65.18
2022-12-10T10:30:31.688Z,64.45
2022-12-10T10:33:22.404Z,63.95
2022-12-10T10:36:15.116Z,60.75
2022-12-10T10:38:48.627Z,53.70
2022-12-10T10:41:15.852Z,60.78
2022-12-10T10:44:09.411Z,64.90
2022-12-10T10:47:10.435Z,55.50
2022-12-10T10:50:12.658Z,49.28
2022-12-10T10:53:01.154Z,58.45
2022-12-10T10:55:37.234Z,53.55
2022-12-10T10:58:04.517Z,54.33
2022-12-10T11:00:31.626Z,55.47
2022-12-10T11:03:21.358Z,51.30
2022-12-10T11:06:22.364Z,52.15
2022-12-10T11:09:39.326Z,52.78
2022-12-10T11:12:30.538Z,53.72
2022-12-10T11:14:57.474Z,50.28
2022-12-10T11:17:44.353Z,48.53
2022-12-10T11:20:31.259Z,54.83
2022-12-10T11:23:25.340Z,55.72
2022-12-10T11:26:41.253Z,58.55
2022-12-10T11:29:40.566Z,54.80
2022-12-10T11:32:30.041Z,51.35
2022-12-10T11:35:28.654Z,54.97
2022-12-10T11:38:21.442Z,49.42
2022-12-10T11:40:54.060Z,48.95
2022-12-10T11:43:27.049Z,45.80
2022-12-10T11:46:32.403Z,46.70
2022-12-10T11:49:25.632Z,44.25
2022-12-10T11:52:05.345Z,47.05
2022-12-10T11:54:48.818Z,44.50
2022-12-10T11:57:21.890Z,44.20
2022-12-10T12:00:15.583Z,39.92
2022-12-10T12:03:25.591Z,42.10
2022-12-10T12:06:51.582Z,43.35
2022-12-10T12:09:47.728Z,38.75
2022-12-10T12:12:17.615Z,41.92
2022-12-10T12:14:53.286Z,43.65
2022-12-10T12:18:05.369Z,43.05
2022-12-10T12:21:29.492Z,44.50
2022-12-10T12:24:31.726Z,46.75
2022-12-10T12:27:27.146Z,46.22
2022-12-10T12:30:06.626Z,44.55
2022-12-10T12:33:02.394Z,47.15
2022-12-10T12:35:50.254Z,50.28
2022-12-10T12:38:41.395Z,46.28
2022-12-10T12:42:16.462Z,55.03
2022-12-10T12:45:27.424Z,51.43
2022-12-10T12:48:19.970Z,45.67
2022-12-10T12:51:07.730Z,49.88
2022-12-10T12:53:35.939Z,54.72
2022-12-10T12:56:19.223Z,46.85
2022-12-10T12:59:13.765Z,51.58
2022-12-10T13:02:16.091Z,47.72
2022-12-10T13:05:07.455Z,47.65
2022-12-10T13:11:11.504Z,50.60
2022-12-10T13:14:17.430Z,40.03
2022-12-10T13:17:46.428Z,46.38
2022-12-10T13:21:11.702Z,41.90
2022-12-10T13:23:53.778Z,45.15
2022-12-10T13:26:27.633Z,49.58
2022-12-10T13:28:56.492Z,38.50
2022-12-10T13:31:37.739Z,42.00
2022-12-10T13:34:05.461Z,40.80
2022-12-10T13:36:47.583Z,38.05
2022-12-10T13:39:36.218Z,35.63
2022-12-10T13:42:24.849Z,35.13
2022-12-10T13:45:16.439Z,42.25
2022-12-10T13:48:29.483Z,38.58
2022-12-10T13:51:40.148Z,33.78
2022-12-10T13:54:18.368Z,43.65
2022-12-10T13:57:06.092Z,34.45
2022-12-10T14:00:07.985Z,36.72
2022-12-10T14:03:26.475Z,33.30
2022-12-10T14:06:33.450Z,37.80
2022-12-10T14:09:40.460Z,36.65
2022-12-10T14:12:55.081Z,32.78
2022-12-10T14:16:13.894Z,32.30
2022-12-10T14:19:20.694Z,33.38
2022-12-10T14:22:22.580Z,30.25
2022-12-10T14:25:07.661Z,35.20
2022-12-10T14:27:50.448Z,31.77
2022-12-10T14:30:48.612Z,35.22
2022-12-10T14:33:39.461Z,27.38
2022-12-10T14:36:47.443Z,29.58
2022-12-10T14:39:31.798Z,29.48
2022-12-10T14:42:01.934Z,26.75
2022-12-10T14:44:53.473Z,40.05
2022-12-10T14:47:54.456Z,29.73
2022-12-10T14:50:35.595Z,27.90
2022-12-10T14:53:02.697Z,31.95
2022-12-10T14:55:29.816Z,34.38
2022-12-10T14:58:02.814Z,28.45
2022-12-10T15:00:49.441Z,34.35
2022-12-10T15:03:59.485Z,35.47
2022-12-10T15:07:01.700Z,37.95
2022-12-10T15:10:04.496Z,36.00
2022-12-10T15:13:07.476Z,33.03
2022-12-10T15:16:08.516Z,37.95
2022-12-10T15:19:10.565Z,35.17
2022-12-10T15:22:29.481Z,41.95
2022-12-10T15:24:58.514Z,41.60
2022-12-10T15:27:27.085Z,46.95
2022-12-10T15:30:34.485Z,47.08
2022-12-10T15:33:48.568Z,42.15
2022-12-10T15:36:34.933Z,49.72
2022-12-10T15:39:16.621Z,43.53
2022-12-10T15:41:45.199Z,53.67
2022-12-10T15:44:26.946Z,44.25
2022-12-10T15:47:03.185Z,43.92
2022-12-10T15:49:50.458Z,50.45
2022-12-10T15:52:52.534Z,59.28
2022-12-10T15:55:33.103Z,53.55
2022-12-10T15:58:00.286Z,55.72
2022-12-10T16:00:28.765Z,58.03
2022-12-10T16:02:58.243Z,65.32
2022-12-10T16:05:32.305Z,60.72
2022-12-10T16:08:42.490Z,68.82
2022-12-10T16:11:43.527Z,62.35
2022-12-10T16:14:44.512Z,73.28
2022-12-10T16:17:45.521Z,71.35
2022-12-10T16:20:29.193Z,68.55
2022-12-10T16:22:57.641Z,66.55
2022-12-10T16:25:27.009Z,79.30
2022-12-10T16:28:14.489Z,68.07
2022-12-10T16:31:01.518Z,66.72
2022-12-10T16:33:29.080Z,64.50
2022-12-10T16:36:16.647Z,76.43
2022-12-10T16:38:57.041Z,61.72
2022-12-10T16:41:25.454Z,66.82
2022-12-10T16:43:52.543Z,64.78
2022-12-10T16:46:19.627Z,63.17
2022-12-10T16:49:06.525Z,54.78
2022-12-10T16:51:54.836Z,56.78
2022-12-10T16:54:21.890Z,59.45
2022-12-10T16:56:49.324Z,61.22
2022-12-10T16:59:37.700Z,61.28
2022-12-10T17:02:38.601Z,53.47
2022-12-10T17:05:46.581Z,62.38
2022-12-10T17:08:40.571Z,56.83
2022-12-10T17:11:52.573Z,53.80
2022-12-10T17:14:55.662Z,55.75
2022-12-10T17:17:56.560Z,64.13
2022-12-10T17:20:37.140Z,62.42
2022-12-10T17:23:03.962Z,58.83
2022-12-10T17:25:31.816Z,57.45
2022-12-10T17:28:00.106Z,58.72
2022-12-10T17:30:47.549Z,56.45
2022-12-10T17:33:28.081Z,54.42
2022-12-10T17:36:15.565Z,59.92
2022-12-10T17:38:56.340Z,62.33
2022-12-10T17:41:23.396Z,55.00
2022-12-10T17:43:50.918Z,52.45
2022-12-10T17:46:23.462Z,48.28
2022-12-10T17:49:10.571Z,44.30
2022-12-10T17:51:51.211Z,42.75
2022-12-10T17:54:18.808Z,50.10
2022-12-10T17:56:45.832Z,50.55
2022-12-10T17:59:15.522Z,53.75
2022-12-10T18:02:02.666Z,54.95
2022-12-10T18:05:03.968Z,56.47
2022-12-10T18:08:04.628Z,48.88
2022-12-10T18:11:06.581Z,50.13
2022-12-10T18:13:48.112Z,55.75
2022-12-10T18:16:38.578Z,49.45
2022-12-10T18:19:19.270Z,52.78
2022-12-10T18:21:51.874Z,53.13
2022-12-10T18:24:20.650Z,50.08
2022-12-10T18:26:47.686Z,47.33
2022-12-10T18:29:34.561Z,51.97
2022-12-10T18:32:15.126Z,54.50
2022-12-10T18:34:42.052Z,56.28
2022-12-10T18:37:10.843Z,65.82
2022-12-10T18:39:57.567Z,49.70
2022-12-10T18:42:41.354Z,42.58
2022-12-10T18:45:12.783Z,50.45
2022-12-10T18:47:39.864Z,44.33
2022-12-10T18:50:19.794Z,45.00
2022-12-10T18:52:46.924Z,49.33
2022-12-10T18:55:13.863Z,48.25
2022-12-10T18:57:44.871Z,51.03
2022-12-10T19:00:37.616Z,53.65
2022-12-10T19:03:41.917Z,47.15
2022-12-10T19:06:45.593Z,50.17
2022-12-10T19:09:46.586Z,50.22
2022-12-10T19:12:38.548Z,62.70
2022-12-10T19:15:27.690Z,69.75
2022-12-10T19:18:17.818Z,61.03
2022-12-10T19:20:44.822Z,67.13
2022-12-10T19:23:11.799Z,62.70
2022-12-10T19:25:39.078Z,71.63
2022-12-10T19:28:06.190Z,81.78
2022-12-10T19:30:33.469Z,78.45
2022-12-10T19:33:00.603Z,74.78
2022-12-10T19:35:47.603Z,90.45
2022-12-10T19:38:48.708Z,66.82
2022-12-10T19:41:31.272Z,91.40
2022-12-10T19:43:58.215Z,90.20
2022-12-10T19:46:27.167Z,69.38
2022-12-10T19:49:16.806Z,68.85
2022-12-10T19:52:17.754Z,81.80
2022-12-10T19:55:03.617Z,69.80
2022-12-10T19:57:30.603Z,77.80
2022-12-10T19:59:59.096Z,79.85
2022-12-10T20:02:26.509Z,134.70
2022-12-10T20:04:53.551Z,85.60
2022-12-10T20:07:40.634Z,124.25
2022-12-10T20:10:24.687Z,113.82
2022-12-10T20:12:52.015Z,98.13
2022-12-10T20:15:42.488Z,100.03
2022-12-10T20:18:47.632Z,104.95
2022-12-10T20:21:34.666Z,156.98
2022-12-10T20:24:03.368Z,121.47
2022-12-10T20:26:40.495Z,90.75
2022-12-10T20:29:36.623Z,132.55
2022-12-10T20:32:37.646Z,108.78
2022-12-10T20:35:19.730Z,98.32
2022-12-10T20:38:06.648Z,76.55
2022-12-10T20:41:07.633Z,86.38
2022-12-10T20:43:48.828Z,87.70
2022-12-10T20:46:41.755Z,85.47
2022-12-10T20:49:23.829Z,103.97
2022-12-10T20:51:51.375Z,81.72
2022-12-10T20:54:18.806Z,93.82
2022-12-10T20:56:46.119Z,79.97
2022-12-10T20:59:14.965Z,84.70
2022-12-10T21:01:42.623Z,75.13
2022-12-10T21:04:10.706Z,81.57
2022-12-10T21:06:58.700Z,78.25
2022-12-10T21:09:39.451Z,95.45
2022-12-10T21:12:09.935Z,66.30
2022-12-10T21:14:56.550Z,66.53
2022-12-10T21:17:44.656Z,84.68
2022-12-10T21:20:45.659Z,84.03
2022-12-10T21:23:28.137Z,114.95
2022-12-10T21:25:55.558Z,80.47
2022-12-10T21:28:42.691Z,77.22
2022-12-10T21:31:25.607Z,71.15
2022-12-10T21:33:53.107Z,60.53
2022-12-10T21:36:22.131Z,79.07
2022-12-10T21:38:49.457Z,68.20
2022-12-10T21:41:44.030Z,70.43
2022-12-10T21:44:12.588Z,83.90
2022-12-10T21:46:40.758Z,82.88
2022-12-10T21:49:27.681Z,78.68
2022-12-10T21:52:28.696Z,80.55
2022-12-10T21:55:10.294Z,75.82
2022-12-10T21:57:37.357Z,84.63
2022-12-10T22:00:06.302Z,71.63
2022-12-10T22:02:40.179Z,68.97
2022-12-10T22:05:09.241Z,70.50
2022-12-10T22:07:56.689Z,76.65
2022-12-10T22:10:37.785Z,66.40
2022-12-10T22:13:04.735Z,71.45
2022-12-10T22:15:31.725Z,69.88
2022-12-10T22:17:58.680Z,64.80
2022-12-10T22:20:55.837Z,79.10
2022-12-10T22:23:56.731Z,65.03
2022-12-10T22:26:37.538Z,63.08
2022-12-10T22:29:24.729Z,68.20
2022-12-10T22:32:06.219Z,63.20
2022-12-10T22:34:33.770Z,60.67
2022-12-10T22:37:01.221Z,66.47
2022-12-10T22:39:48.710Z,59.45
2022-12-10T22:42:29.342Z,53.92
2022-12-10T22:44:56.282Z,58.88
2022-12-10T22:47:23.233Z,51.47
2022-12-10T22:49:50.160Z,56.53
2022-12-10T22:52:17.033Z,61.05
2022-12-10T22:55:03.716Z,64.75
2022-12-10T22:57:44.387Z,58.10
2022-12-10T23:00:16.544Z,66.65
2022-12-10T23:02:43.615Z,66.68
2022-12-10T23:05:10.959Z,55.15
2022-12-10T23:07:58.747Z,60.78
2022-12-10T23:10:42.600Z,63.80
2022-12-10T23:13:11.188Z,63.00
2022-12-10T23:15:58.720Z,56.72
2022-12-10T23:18:40.046Z,57.45
2022-12-10T23:21:15.923Z,52.83
2022-12-10T23:23:43.005Z,54.15
2022-12-10T23:26:10.118Z,63.10
2022-12-10T23:28:37.145Z,51.78
2022-12-10T23:31:23.801Z,57.53
2022-12-10T23:34:24.742Z,56.88
2022-12-10T23:37:25.712Z,59.60
2022-12-10T23:40:07.380Z,57.15
2022-12-10T23:42:54.713Z,53.50
2022-12-10T23:45:35.507Z,59.22
2022-12-10T23:48:02.630Z,58.00
2022-12-10T23:50:32.928Z,55.67
2022-12-10T23:53:01.128Z,56.25
2022-12-10T23:55:28.492Z,74.50
2022-12-10T23:57:55.943Z,58.60
